createdAt,value
2022-09-21T00:00:20.045Z,1015.64
2022-09-21T00:01:20.134Z,1015.64
2022-09-21T00:02:20.069Z,1015.64
2022-09-21T00:03:20.016Z,1015.64
2022-09-21T00:04:20.001Z,1015.64
2022-09-21T00:05:20.009Z,1015.63
2022-09-21T00:06:20.004Z,1015.63
2022-09-21T00:07:19.980Z,1015.62
2022-09-21T00:08:20.047Z,1015.61
2022-09-21T00:09:19.977Z,1015.60
2022-09-21T00:10:19.954Z,1015.61
2022-09-21T00:11:19.961Z,1015.61
2022-09-21T00:12:19.918Z,1015.62
2022-09-21T00:13:19.923Z,1015.63
2022-09-21T00:14:19.892Z,1015.63
2022-09-21T00:15:19.896Z,1015.63
2022-09-21T00:16:19.909Z,1015.64
2022-09-21T00:17:19.971Z,1015.65
2022-09-21T00:18:19.882Z,1015.65
2022-09-21T00:19:19.861Z,1015.66
2022-09-21T00:20:19.873Z,1015.67
2022-09-21T00:21:19.858Z,1015.67
2022-09-21T00:22:19.855Z,1015.68
2022-09-21T00:23:19.856Z,1015.68
2022-09-21T00:24:19.797Z,1015.68
2022-09-21T00:25:19.803Z,1015.67
2022-09-21T00:26:19.830Z,1015.67
2022-09-21T00:27:19.806Z,1015.66
2022-09-21T00:28:19.758Z,1015.66
2022-09-21T00:29:19.752Z,1015.67
2022-09-21T00:30:19.748Z,1015.68
2022-09-21T00:31:19.798Z,1015.69
2022-09-21T00:32:19.732Z,1015.70
2022-09-21T00:33:19.749Z,1015.69
2022-09-21T00:34:19.692Z,1015.68
2022-09-21T00:35:19.686Z,1015.67
2022-09-21T00:36:19.678Z,1015.68
2022-09-21T00:37:19.693Z,1015.68
2022-09-21T00:38:19.669Z,1015.69
2022-09-21T00:39:19.691Z,1015.69
2022-09-21T00:40:19.653Z,1015.70
2022-09-21T00:41:19.641Z,1015.70
2022-09-21T00:42:19.615Z,1015.70
2022-09-21T00:43:19.633Z,1015.69
2022-09-21T00:44:19.629Z,1015.69
2022-09-21T00:45:19.634Z,1015.70
2022-09-21T00:46:19.583Z,1015.71
2022-09-21T00:47:19.559Z,1015.73
2022-09-21T00:48:19.545Z,1015.75
2022-09-21T00:49:19.546Z,1015.74
2022-09-21T00:50:19.549Z,1015.73
2022-09-21T00:51:19.521Z,1015.71
2022-09-21T00:52:19.520Z,1015.71
2022-09-21T00:53:19.559Z,1015.72
2022-09-21T00:54:19.508Z,1015.73
2022-09-21T00:55:19.513Z,1015.73
2022-09-21T00:56:19.466Z,1015.73
2022-09-21T00:57:19.487Z,1015.73
2022-09-21T00:58:19.517Z,1015.72
2022-09-21T00:59:21.697Z,1015.72
2022-09-21T01:00:19.437Z,1015.71
2022-09-21T01:01:19.497Z,1015.71
2022-09-21T01:02:19.505Z,1015.71
2022-09-21T01:03:19.408Z,1015.72
2022-09-21T01:04:19.383Z,1015.71
2022-09-21T01:05:19.377Z,1015.70
2022-09-21T01:06:19.384Z,1015.70
2022-09-21T01:07:19.361Z,1015.71
2022-09-21T01:08:19.368Z,1015.73
2022-09-21T01:09:19.384Z,1015.75
2022-09-21T01:10:19.327Z,1015.77
2022-09-21T01:11:19.356Z,1015.77
2022-09-21T01:12:19.313Z,1015.77
2022-09-21T01:13:19.334Z,1015.77
2022-09-21T01:14:19.305Z,1015.78
2022-09-21T01:15:19.278Z,1015.79
2022-09-21T01:16:19.375Z,1015.80
2022-09-21T01:17:19.333Z,1015.80
2022-09-21T01:18:19.250Z,1015.80
2022-09-21T01:19:19.250Z,1015.80
2022-09-21T01:20:19.260Z,1015.79
2022-09-21T01:21:19.219Z,1015.79
2022-09-21T01:22:19.283Z,1015.80
2022-09-21T01:23:19.195Z,1015.80
2022-09-21T01:24:21.999Z,1015.80
2022-09-21T01:25:19.182Z,1015.79
2022-09-21T01:26:19.179Z,1015.79
2022-09-21T01:27:19.196Z,1015.80
2022-09-21T01:28:19.140Z,1015.81
2022-09-21T01:29:19.130Z,1015.82
2022-09-21T01:30:19.117Z,1015.83
2022-09-21T01:31:19.152Z,1015.84
2022-09-21T01:32:19.089Z,1015.85
2022-09-21T01:33:19.148Z,1015.86
2022-09-21T01:34:19.160Z,1015.87
2022-09-21T01:35:19.101Z,1015.87
2022-09-21T01:36:19.065Z,1015.88
2022-09-21T01:37:19.075Z,1015.89
2022-09-21T01:38:19.073Z,1015.90
2022-09-21T01:39:19.053Z,1015.91
2022-09-21T01:40:19.099Z,1015.93
2022-09-21T01:41:19.004Z,1015.93
2022-09-21T01:42:19.007Z,1015.93
2022-09-21T01:43:19.014Z,1015.93
2022-09-21T01:44:18.987Z,1015.93
2022-09-21T01:45:18.987Z,1015.93
2022-09-21T01:46:18.974Z,1015.92
2022-09-21T01:47:18.971Z,1015.92
2022-09-21T01:48:18.976Z,1015.92
2022-09-21T01:49:18.949Z,1015.91
2022-09-21T01:50:18.915Z,1015.91
2022-09-21T01:51:18.915Z,1015.90
2022-09-21T01:52:18.894Z,1015.90
2022-09-21T01:53:18.891Z,1015.90
2022-09-21T01:54:18.999Z,1015.90
2022-09-21T01:55:18.887Z,1015.89
2022-09-21T01:56:18.860Z,1015.88
2022-09-21T01:57:18.838Z,1015.87
2022-09-21T01:58:18.826Z,1015.86
2022-09-21T01:59:19.023Z,1015.86
2022-09-21T02:00:18.821Z,1015.85
2022-09-21T02:01:18.884Z,1015.86
2022-09-21T02:02:18.897Z,1015.85
2022-09-21T02:03:18.792Z,1015.85
2022-09-21T02:04:18.781Z,1015.85
2022-09-21T02:05:18.924Z,1015.84
2022-09-21T02:06:18.789Z,1015.84
2022-09-21T02:07:18.735Z,1015.85
2022-09-21T02:08:18.734Z,1015.85
2022-09-21T02:09:18.741Z,1015.86
2022-09-21T02:10:18.820Z,1015.87
2022-09-21T02:11:18.700Z,1015.87
2022-09-21T02:12:19.413Z,1015.87
2022-09-21T02:13:18.696Z,1015.87
2022-09-21T02:14:18.684Z,1015.86
2022-09-21T02:15:18.656Z,1015.86
2022-09-21T02:16:18.706Z,1015.85
2022-09-21T02:17:18.640Z,1015.86
2022-09-21T02:18:18.648Z,1015.86
2022-09-21T02:19:18.612Z,1015.86
2022-09-21T02:20:18.617Z,1015.86
2022-09-21T02:21:18.641Z,1015.85
2022-09-21T02:22:18.583Z,1015.85
2022-09-21T02:23:18.588Z,1015.85
2022-09-21T02:24:18.675Z,1015.85
2022-09-21T02:25:18.582Z,1015.85
2022-09-21T02:26:18.538Z,1015.84
2022-09-21T02:27:18.582Z,1015.83
2022-09-21T02:28:18.526Z,1015.83
2022-09-21T02:29:18.531Z,1015.82
2022-09-21T02:30:18.492Z,1015.82
2022-09-21T02:31:18.529Z,1015.83
2022-09-21T02:32:18.483Z,1015.83
2022-09-21T02:33:18.467Z,1015.83
2022-09-21T02:34:18.468Z,1015.84
2022-09-21T02:35:18.445Z,1015.84
2022-09-21T02:36:18.524Z,1015.85
2022-09-21T02:37:18.463Z,1015.85
2022-09-21T02:38:18.460Z,1015.86
2022-09-21T02:39:18.412Z,1015.85
2022-09-21T02:40:18.441Z,1015.85
2022-09-21T02:41:18.388Z,1015.85
2022-09-21T02:42:18.416Z,1015.86
2022-09-21T02:43:18.366Z,1015.86
2022-09-21T02:44:18.350Z,1015.87
2022-09-21T02:45:18.349Z,1015.87
2022-09-21T02:46:18.359Z,1015.87
2022-09-21T02:47:18.348Z,1015.87
2022-09-21T02:48:18.338Z,1015.86
2022-09-21T02:49:18.264Z,1015.86
2022-09-21T02:50:18.288Z,1015.85
2022-09-21T02:51:18.292Z,1015.85
2022-09-21T02:52:18.276Z,1015.86
2022-09-21T02:53:18.302Z,1015.87
2022-09-21T02:54:18.268Z,1015.87
2022-09-21T02:55:18.244Z,1015.87
2022-09-21T02:56:18.264Z,1015.87
2022-09-21T02:57:18.236Z,1015.87
2022-09-21T02:58:18.235Z,1015.88
2022-09-21T02:59:18.204Z,1015.88
2022-09-21T03:00:18.234Z,1015.88
2022-09-21T03:01:18.185Z,1015.88
2022-09-21T03:02:18.190Z,1015.89
2022-09-21T03:03:18.201Z,1015.89
2022-09-21T03:04:18.163Z,1015.88
2022-09-21T03:05:18.140Z,1015.89
2022-09-21T03:06:18.145Z,1015.88
2022-09-21T03:07:18.112Z,1015.87
2022-09-21T03:08:18.139Z,1015.87
2022-09-21T03:09:18.135Z,1015.86
2022-09-21T03:10:18.136Z,1015.86
2022-09-21T03:11:18.086Z,1015.86
2022-09-21T03:12:18.091Z,1015.87
2022-09-21T03:13:18.052Z,1015.88
2022-09-21T03:14:18.062Z,1015.89
2022-09-21T03:15:18.118Z,1015.90
2022-09-21T03:16:18.071Z,1015.90
2022-09-21T03:17:18.032Z,1015.91
2022-09-21T03:18:18.021Z,1015.91
2022-09-21T03:19:17.990Z,1015.91
2022-09-21T03:20:17.990Z,1015.91
2022-09-21T03:21:18.001Z,1015.92
2022-09-21T03:22:17.970Z,1015.93
2022-09-21T03:23:17.970Z,1015.94
2022-09-21T03:24:18.093Z,1015.95
2022-09-21T03:25:17.965Z,1015.97
2022-09-21T03:26:17.939Z,1015.98
2022-09-21T03:27:17.922Z,1016.00
2022-09-21T03:28:17.954Z,1016.01
2022-09-21T03:29:17.943Z,1016.02
2022-09-21T03:30:17.898Z,1016.03
2022-09-21T03:31:17.934Z,1016.04
2022-09-21T03:32:17.862Z,1016.05
2022-09-21T03:33:17.891Z,1016.06
2022-09-21T03:34:17.885Z,1016.07
2022-09-21T03:35:17.873Z,1016.08
2022-09-21T03:36:17.828Z,1016.08
2022-09-21T03:37:17.818Z,1016.08
2022-09-21T03:38:17.836Z,1016.09
2022-09-21T03:39:17.781Z,1016.10
2022-09-21T03:40:17.812Z,1016.12
2022-09-21T03:41:17.787Z,1016.12
2022-09-21T03:42:17.761Z,1016.13
2022-09-21T03:43:17.793Z,1016.14
2022-09-21T03:44:17.748Z,1016.13
2022-09-21T03:45:17.784Z,1016.14
2022-09-21T03:46:17.757Z,1016.15
2022-09-21T03:47:17.729Z,1016.15
2022-09-21T03:48:17.693Z,1016.14
2022-09-21T03:49:17.701Z,1016.12
2022-09-21T03:50:17.683Z,1016.11
2022-09-21T03:51:17.739Z,1016.10
2022-09-21T03:52:17.604Z,1016.09
2022-09-21T03:53:17.653Z,1016.09
2022-09-21T03:54:17.672Z,1016.08
2022-09-21T03:55:17.635Z,1016.08
2022-09-21T03:56:17.621Z,1016.08
2022-09-21T03:57:17.613Z,1016.09
2022-09-21T03:58:17.638Z,1016.10
2022-09-21T03:59:17.592Z,1016.10
2022-09-21T04:00:17.618Z,1016.10
2022-09-21T04:01:17.666Z,1016.10
2022-09-21T04:02:17.638Z,1016.10
2022-09-21T04:03:17.534Z,1016.11
2022-09-21T04:04:17.606Z,1016.11
2022-09-21T04:05:17.552Z,1016.12
2022-09-21T04:06:17.595Z,1016.13
2022-09-21T04:07:17.455Z,1016.14
2022-09-21T04:08:17.506Z,1016.15
2022-09-21T04:09:17.462Z,1016.15
2022-09-21T04:10:17.531Z,1016.16
2022-09-21T04:11:17.480Z,1016.15
2022-09-21T04:12:17.476Z,1016.15
2022-09-21T04:13:17.440Z,1016.15
2022-09-21T04:14:17.457Z,1016.16
2022-09-21T04:15:17.453Z,1016.17
2022-09-21T04:16:17.417Z,1016.18
2022-09-21T04:17:17.348Z,1016.19
2022-09-21T04:18:17.430Z,1016.20
2022-09-21T04:19:17.385Z,1016.22
2022-09-21T04:20:17.397Z,1016.24
2022-09-21T04:21:17.380Z,1016.25
2022-09-21T04:22:17.338Z,1016.25
2022-09-21T04:23:17.452Z,1016.25
2022-09-21T04:24:17.335Z,1016.25
2022-09-21T04:25:17.407Z,1016.24
2022-09-21T04:26:17.327Z,1016.24
2022-09-21T04:27:17.292Z,1016.23
2022-09-21T04:28:17.334Z,1016.24
2022-09-21T04:29:17.211Z,1016.23
2022-09-21T04:30:17.274Z,1016.23
2022-09-21T04:31:17.356Z,1016.23
2022-09-21T04:32:17.330Z,1016.23
2022-09-21T04:33:17.253Z,1016.23
2022-09-21T04:34:17.188Z,1016.23
2022-09-21T04:35:17.233Z,1016.24
2022-09-21T04:36:17.236Z,1016.25
2022-09-21T04:37:17.225Z,1016.25
2022-09-21T04:38:17.257Z,1016.25
2022-09-21T04:39:17.176Z,1016.26
2022-09-21T04:40:17.258Z,1016.27
2022-09-21T04:41:17.203Z,1016.27
2022-09-21T04:42:17.158Z,1016.28
2022-09-21T04:43:22.022Z,1016.29
2022-09-21T04:44:17.096Z,1016.29
2022-09-21T04:45:17.062Z,1016.30
2022-09-21T04:46:17.153Z,1016.30
2022-09-21T04:47:17.104Z,1016.31
2022-09-21T04:48:17.114Z,1016.32
2022-09-21T04:49:17.074Z,1016.34
2022-09-21T04:50:17.131Z,1016.35
2022-09-21T04:51:17.010Z,1016.36
2022-09-21T04:52:19.115Z,1016.37
2022-09-21T04:53:17.062Z,1016.37
2022-09-21T04:54:17.034Z,1016.37
2022-09-21T04:55:16.959Z,1016.37
2022-09-21T04:56:16.971Z,1016.38
2022-09-21T04:57:16.939Z,1016.38
2022-09-21T04:58:19.287Z,1016.39
2022-09-21T04:59:16.943Z,1016.39
2022-09-21T05:00:16.912Z,1016.40
2022-09-21T05:01:16.952Z,1016.41
2022-09-21T05:02:16.906Z,1016.41
2022-09-21T05:03:16.927Z,1016.41
2022-09-21T05:04:16.878Z,1016.42
2022-09-21T05:05:16.954Z,1016.43
2022-09-21T05:06:16.842Z,1016.43
2022-09-21T05:07:16.839Z,1016.44
2022-09-21T05:08:16.855Z,1016.44
2022-09-21T05:09:16.829Z,1016.46
2022-09-21T05:10:16.830Z,1016.46
2022-09-21T05:11:16.795Z,1016.48
2022-09-21T05:12:16.787Z,1016.49
2022-09-21T05:13:19.851Z,1016.51
2022-09-21T05:14:16.776Z,1016.51
2022-09-21T05:15:16.787Z,1016.52
2022-09-21T05:16:16.818Z,1016.53
2022-09-21T05:17:16.732Z,1016.54
2022-09-21T05:18:16.733Z,1016.56
2022-09-21T05:19:16.730Z,1016.57
2022-09-21T05:20:16.781Z,1016.58
2022-09-21T05:21:16.687Z,1016.59
2022-09-21T05:22:16.680Z,1016.59
2022-09-21T05:23:16.940Z,1016.60
2022-09-21T05:24:16.664Z,1016.61
2022-09-21T05:25:16.675Z,1016.61
2022-09-21T05:26:16.675Z,1016.63
2022-09-21T05:27:16.685Z,1016.65
2022-09-21T05:28:16.630Z,1016.67
2022-09-21T05:29:16.599Z,1016.68
2022-09-21T05:30:16.645Z,1016.69
2022-09-21T05:31:18.329Z,1016.69
2022-09-21T05:32:16.591Z,1016.70
2022-09-21T05:33:16.649Z,1016.70
2022-09-21T05:34:16.561Z,1016.71
2022-09-21T05:35:16.565Z,1016.72
2022-09-21T05:36:16.534Z,1016.73
2022-09-21T05:37:16.541Z,1016.74
2022-09-21T05:38:16.516Z,1016.75
2022-09-21T05:39:16.497Z,1016.74
2022-09-21T05:40:16.579Z,1016.75
2022-09-21T05:41:16.485Z,1016.76
2022-09-21T05:42:16.566Z,1016.76
2022-09-21T05:43:16.493Z,1016.77
2022-09-21T05:44:16.454Z,1016.78
2022-09-21T05:45:16.464Z,1016.79
2022-09-21T05:46:16.464Z,1016.79
2022-09-21T05:47:16.467Z,1016.80
2022-09-21T05:48:16.451Z,1016.81
2022-09-21T05:49:16.420Z,1016.81
2022-09-21T05:50:16.397Z,1016.82
2022-09-21T05:51:16.395Z,1016.82
2022-09-21T05:52:16.392Z,1016.83
2022-09-21T05:53:16.476Z,1016.83
2022-09-21T05:54:16.357Z,1016.84
2022-09-21T05:55:16.356Z,1016.85
2022-09-21T05:56:16.364Z,1016.85
2022-09-21T05:57:16.344Z,1016.86
2022-09-21T05:58:16.339Z,1016.87
2022-09-21T05:59:16.296Z,1016.88
2022-09-21T06:00:16.393Z,1016.88
2022-09-21T06:01:16.510Z,1016.87
2022-09-21T06:02:16.349Z,1016.89
2022-09-21T06:03:17.774Z,1016.89
2022-09-21T06:04:16.252Z,1016.90
2022-09-21T06:05:16.238Z,1016.91
2022-09-21T06:06:16.277Z,1016.92
2022-09-21T06:07:16.220Z,1016.91
2022-09-21T06:08:16.258Z,1016.93
2022-09-21T06:09:16.215Z,1016.94
2022-09-21T06:10:16.262Z,1016.94
2022-09-21T06:11:16.258Z,1016.96
2022-09-21T06:12:16.174Z,1016.96
2022-09-21T06:13:16.167Z,1016.97
2022-09-21T06:14:16.195Z,1016.97
2022-09-21T06:15:16.152Z,1016.99
2022-09-21T06:16:16.168Z,1016.98
2022-09-21T06:17:16.131Z,1016.98
2022-09-21T06:18:18.119Z,1016.98
2022-09-21T06:19:16.134Z,1016.98
2022-09-21T06:20:16.094Z,1017.00
2022-09-21T06:21:16.084Z,1017.00
2022-09-21T06:22:16.250Z,1017.00
2022-09-21T06:23:16.462Z,1016.99
2022-09-21T06:24:16.050Z,1016.99
2022-09-21T06:25:16.058Z,1016.99
2022-09-21T06:26:16.566Z,1017.00
2022-09-21T06:27:16.015Z,1017.01
2022-09-21T06:28:16.949Z,1017.02
2022-09-21T06:29:16.001Z,1017.03
2022-09-21T06:30:15.992Z,1017.04
2022-09-21T06:31:15.979Z,1017.05
2022-09-21T06:32:15.960Z,1017.05
2022-09-21T06:33:16.048Z,1017.05
2022-09-21T06:34:16.119Z,1017.05
2022-09-21T06:35:15.958Z,1017.04
2022-09-21T06:36:15.957Z,1017.04
2022-09-21T06:37:15.927Z,1017.04
2022-09-21T06:38:15.962Z,1017.03
2022-09-21T06:39:15.946Z,1017.04
2022-09-21T06:40:15.942Z,1017.04
2022-09-21T06:41:20.819Z,1017.04
2022-09-21T06:42:15.920Z,1017.05
2022-09-21T06:43:17.650Z,1017.05
2022-09-21T06:44:15.879Z,1017.06
2022-09-21T06:45:15.829Z,1017.06
2022-09-21T06:46:15.858Z,1017.07
2022-09-21T06:47:15.854Z,1017.08
2022-09-21T06:48:15.975Z,1017.08
2022-09-21T06:49:15.841Z,1017.09
2022-09-21T06:50:15.794Z,1017.10
2022-09-21T06:51:15.843Z,1017.12
2022-09-21T06:52:15.865Z,1017.11
2022-09-21T06:53:15.788Z,1017.11
2022-09-21T06:54:15.759Z,1017.12
2022-09-21T06:55:15.788Z,1017.12
2022-09-21T06:56:15.930Z,1017.10
2022-09-21T06:57:15.754Z,1017.08
2022-09-21T06:58:15.709Z,1017.06
2022-09-21T06:59:15.714Z,1017.04
2022-09-21T07:00:15.732Z,1017.04
2022-09-21T07:01:16.017Z,1017.05
2022-09-21T07:02:17.005Z,1017.05
2022-09-21T07:03:15.676Z,1017.04
2022-09-21T07:04:15.684Z,1017.03
2022-09-21T07:05:15.737Z,1017.03
2022-09-21T07:06:15.659Z,1017.02
2022-09-21T07:07:15.644Z,1017.01
2022-09-21T07:10:19.937Z,1017.05
2022-09-21T07:11:15.597Z,1017.08
2022-09-21T07:12:15.598Z,1017.09
2022-09-21T07:13:15.563Z,1017.10
2022-09-21T07:14:15.778Z,1017.11
2022-09-21T07:15:15.530Z,1017.11
2022-09-21T07:16:15.600Z,1017.12
2022-09-21T07:17:16.021Z,1017.12
2022-09-21T07:18:15.519Z,1017.13
2022-09-21T07:19:15.543Z,1017.13
2022-09-21T07:20:15.491Z,1017.14
2022-09-21T07:21:15.516Z,1017.14
2022-09-21T07:22:15.460Z,1017.15
2022-09-21T07:23:15.462Z,1017.16
2022-09-21T07:24:15.464Z,1017.17
2022-09-21T07:25:15.471Z,1017.17
2022-09-21T07:26:15.446Z,1017.17
2022-09-21T07:27:15.414Z,1017.17
2022-09-21T07:28:15.398Z,1017.15
2022-09-21T07:29:15.401Z,1017.15
2022-09-21T07:30:15.394Z,1017.14
2022-09-21T07:31:15.421Z,1017.13
2022-09-21T07:32:15.412Z,1017.13
2022-09-21T07:33:15.353Z,1017.13
2022-09-21T07:34:15.331Z,1017.14
2022-09-21T07:35:15.351Z,1017.15
2022-09-21T07:36:15.353Z,1017.15
2022-09-21T07:37:15.325Z,1017.16
2022-09-21T07:38:15.333Z,1017.16
2022-09-21T07:39:15.384Z,1017.15
2022-09-21T07:40:15.297Z,1017.15
2022-09-21T07:41:15.273Z,1017.14
2022-09-21T07:42:15.290Z,1017.14
2022-09-21T07:43:15.313Z,1017.14
2022-09-21T07:44:15.305Z,1017.14
2022-09-21T07:45:15.233Z,1017.14
2022-09-21T07:46:15.237Z,1017.14
2022-09-21T07:47:15.203Z,1017.13
2022-09-21T07:48:15.307Z,1017.13
2022-09-21T07:49:15.204Z,1017.13
2022-09-21T07:50:15.174Z,1017.13
2022-09-21T07:51:15.260Z,1017.12
2022-09-21T07:52:15.168Z,1017.13
2022-09-21T07:53:15.180Z,1017.13
2022-09-21T07:54:15.211Z,1017.13
2022-09-21T07:55:15.169Z,1017.13
2022-09-21T07:56:15.272Z,1017.12
2022-09-21T07:57:15.123Z,1017.12
2022-09-21T07:58:15.084Z,1017.11
2022-09-21T07:59:15.123Z,1017.12
2022-09-21T08:00:15.073Z,1017.11
2022-09-21T08:01:15.171Z,1017.11
2022-09-21T08:02:15.109Z,1017.12
2022-09-21T08:03:15.057Z,1017.12
2022-09-21T08:04:15.075Z,1017.12
2022-09-21T08:05:15.027Z,1017.11
2022-09-21T08:06:15.008Z,1017.12
2022-09-21T08:07:15.122Z,1017.13
2022-09-21T08:08:14.982Z,1017.14
2022-09-21T08:09:15.051Z,1017.15
2022-09-21T08:10:14.977Z,1017.16
2022-09-21T08:11:14.957Z,1017.17
2022-09-21T08:12:14.962Z,1017.17
2022-09-21T08:13:14.938Z,1017.17
2022-09-21T08:14:14.939Z,1017.17
2022-09-21T08:15:30.920Z,1017.18
2022-09-21T08:16:14.957Z,1017.19
2022-09-21T08:17:14.921Z,1017.19
2022-09-21T08:18:14.932Z,1017.20
2022-09-21T08:19:15.002Z,1017.19
2022-09-21T08:20:14.866Z,1017.20
2022-09-21T08:21:14.864Z,1017.19
2022-09-21T08:22:14.873Z,1017.20
2022-09-21T08:23:14.846Z,1017.21
2022-09-21T08:24:14.884Z,1017.21
2022-09-21T08:25:14.848Z,1017.22
2022-09-21T08:26:14.880Z,1017.22
2022-09-21T08:27:14.868Z,1017.23
2022-09-21T08:28:14.780Z,1017.24
2022-09-21T08:29:14.781Z,1017.23
2022-09-21T08:30:14.828Z,1017.24
2022-09-21T08:31:14.808Z,1017.25
2022-09-21T08:32:33.101Z,1017.25
2022-09-21T08:33:14.770Z,1017.24
2022-09-21T08:34:14.721Z,1017.23
2022-09-21T08:35:14.736Z,1017.23
2022-09-21T08:36:14.753Z,1017.23
2022-09-21T08:37:14.756Z,1017.23
2022-09-21T08:38:14.697Z,1017.23
2022-09-21T08:39:14.688Z,1017.23
2022-09-21T08:40:14.743Z,1017.23
2022-09-21T08:41:14.682Z,1017.23
2022-09-21T08:42:14.661Z,1017.23
2022-09-21T08:43:14.662Z,1017.23
2022-09-21T08:44:14.706Z,1017.25
2022-09-21T08:45:14.664Z,1017.25
2022-09-21T08:46:14.645Z,1017.24
2022-09-21T08:47:14.619Z,1017.23
2022-09-21T08:48:14.614Z,1017.22
2022-09-21T08:49:14.576Z,1017.20
2022-09-21T08:50:14.611Z,1017.20
2022-09-21T08:51:14.553Z,1017.20
2022-09-21T08:52:16.824Z,1017.19
2022-09-21T08:53:14.539Z,1017.18
2022-09-21T08:54:14.532Z,1017.16
2022-09-21T08:55:17.599Z,1017.16
2022-09-21T08:56:14.520Z,1017.17
2022-09-21T08:57:14.525Z,1017.16
2022-09-21T08:58:14.477Z,1017.15
2022-09-21T08:59:14.539Z,1017.14
2022-09-21T09:00:14.477Z,1017.14
2022-09-21T09:01:14.565Z,1017.14
2022-09-21T09:02:14.592Z,1017.14
2022-09-21T09:03:14.438Z,1017.14
2022-09-21T09:04:14.430Z,1017.14
2022-09-21T09:05:14.448Z,1017.12
2022-09-21T09:06:14.407Z,1017.11
2022-09-21T09:07:14.438Z,1017.11
2022-09-21T09:08:14.445Z,1017.11
2022-09-21T09:09:14.378Z,1017.10
2022-09-21T09:10:14.370Z,1017.10
2022-09-21T09:11:14.356Z,1017.10
2022-09-21T09:12:14.392Z,1017.10
2022-09-21T09:13:14.363Z,1017.08
2022-09-21T09:14:14.350Z,1017.08
2022-09-21T09:15:14.310Z,1017.08
2022-09-21T09:16:14.368Z,1017.07
2022-09-21T09:17:14.313Z,1017.05
2022-09-21T09:18:14.282Z,1017.03
2022-09-21T09:19:14.314Z,1017.02
2022-09-21T09:20:14.280Z,1017.00
2022-09-21T09:21:18.139Z,1017.00
2022-09-21T09:22:14.241Z,1016.99
2022-09-21T09:23:14.242Z,1016.99
2022-09-21T09:24:14.251Z,1016.99
2022-09-21T09:25:14.249Z,1016.98
2022-09-21T09:26:14.220Z,1016.98
2022-09-21T09:27:14.200Z,1016.98
2022-09-21T09:28:14.175Z,1016.97
2022-09-21T09:29:14.232Z,1016.97
2022-09-21T09:30:14.176Z,1016.96
2022-09-21T09:31:14.227Z,1016.95
2022-09-21T09:32:14.133Z,1016.94
2022-09-21T09:33:14.135Z,1016.94
2022-09-21T09:34:14.155Z,1016.94
2022-09-21T09:35:14.144Z,1016.94
2022-09-21T09:36:14.110Z,1016.93
2022-09-21T09:37:14.144Z,1016.92
2022-09-21T09:38:14.100Z,1016.92
2022-09-21T09:39:14.096Z,1016.91
2022-09-21T09:40:14.114Z,1016.91
2022-09-21T09:41:14.074Z,1016.91
2022-09-21T09:42:14.050Z,1016.90
2022-09-21T09:43:14.031Z,1016.90
2022-09-21T09:44:14.030Z,1016.89
2022-09-21T09:45:14.011Z,1016.89
2022-09-21T09:46:14.090Z,1016.87
2022-09-21T09:47:14.018Z,1016.87
2022-09-21T09:48:15.850Z,1016.85
2022-09-21T09:49:13.984Z,1016.84
2022-09-21T09:50:14.006Z,1016.84
2022-09-21T09:51:14.013Z,1016.83
2022-09-21T09:52:13.979Z,1016.81
2022-09-21T09:53:13.950Z,1016.80
2022-09-21T09:54:13.921Z,1016.79
2022-09-21T09:55:13.912Z,1016.78
2022-09-21T09:56:13.935Z,1016.76
2022-09-21T09:57:13.996Z,1016.75
2022-09-21T09:58:13.906Z,1016.73
2022-09-21T09:59:13.883Z,1016.74
2022-09-21T10:00:13.883Z,1016.74
2022-09-21T10:01:13.885Z,1016.75
2022-09-21T10:02:13.956Z,1016.75
2022-09-21T10:03:13.854Z,1016.74
2022-09-21T10:04:13.937Z,1016.76
2022-09-21T10:05:13.819Z,1016.75
2022-09-21T10:06:13.802Z,1016.77
2022-09-21T10:07:13.913Z,1016.77
2022-09-21T10:08:13.826Z,1016.77
2022-09-21T10:09:13.904Z,1016.78
2022-09-21T10:10:13.802Z,1016.78
2022-09-21T10:11:13.767Z,1016.75
2022-09-21T10:12:13.742Z,1016.75
2022-09-21T10:13:13.759Z,1016.74
2022-09-21T10:14:13.781Z,1016.75
2022-09-21T10:15:13.712Z,1016.71
2022-09-21T10:16:13.758Z,1016.70
2022-09-21T10:17:13.698Z,1016.69
2022-09-21T10:18:13.695Z,1016.69
2022-09-21T10:19:13.692Z,1016.68
2022-09-21T10:20:13.661Z,1016.69
2022-09-21T10:21:14.002Z,1016.68
2022-09-21T10:22:13.661Z,1016.68
2022-09-21T10:23:13.830Z,1016.67
2022-09-21T10:24:13.639Z,1016.67
2022-09-21T10:25:13.643Z,1016.65
2022-09-21T10:26:13.646Z,1016.63
2022-09-21T10:27:13.642Z,1016.64
2022-09-21T10:28:13.626Z,1016.62
2022-09-21T10:29:13.599Z,1016.62
2022-09-21T10:30:13.611Z,1016.60
2022-09-21T10:31:13.644Z,1016.58
2022-09-21T10:32:14.731Z,1016.58
2022-09-21T10:33:13.565Z,1016.58
2022-09-21T10:34:13.548Z,1016.59
2022-09-21T10:35:13.592Z,1016.57
2022-09-21T10:36:13.556Z,1016.57
2022-09-21T10:37:13.516Z,1016.56
2022-09-21T10:38:14.718Z,1016.56
2022-09-21T10:39:13.590Z,1016.56
2022-09-21T10:40:13.545Z,1016.57
2022-09-21T10:41:13.501Z,1016.55
2022-09-21T10:42:13.453Z,1016.54
2022-09-21T10:43:13.565Z,1016.54
2022-09-21T10:44:13.443Z,1016.55
2022-09-21T10:45:13.438Z,1016.53
2022-09-21T10:46:13.468Z,1016.52
2022-09-21T10:47:16.073Z,1016.52
2022-09-21T10:48:13.420Z,1016.51
2022-09-21T10:49:13.394Z,1016.50
2022-09-21T10:50:13.401Z,1016.49
2022-09-21T10:51:13.370Z,1016.49
2022-09-21T10:52:13.365Z,1016.47
2022-09-21T10:53:13.356Z,1016.46
2022-09-21T10:54:13.383Z,1016.44
2022-09-21T10:55:13.321Z,1016.43
2022-09-21T10:56:17.372Z,1016.44
2022-09-21T10:57:13.348Z,1016.40
2022-09-21T10:58:13.317Z,1016.40
2022-09-21T10:59:13.300Z,1016.40
2022-09-21T11:00:13.296Z,1016.40
2022-09-21T11:01:13.347Z,1016.37
2022-09-21T11:02:13.281Z,1016.37
2022-09-21T11:03:13.244Z,1016.37
2022-09-21T11:04:13.225Z,1016.36
2022-09-21T11:05:13.248Z,1016.36
2022-09-21T11:06:13.237Z,1016.36
2022-09-21T11:07:13.200Z,1016.36
2022-09-21T11:08:13.220Z,1016.35
2022-09-21T11:09:13.176Z,1016.35
2022-09-21T11:10:13.305Z,1016.34
2022-09-21T11:11:13.229Z,1016.30
2022-09-21T11:12:13.186Z,1016.31
2022-09-21T11:13:13.500Z,1016.30
2022-09-21T11:14:13.131Z,1016.31
2022-09-21T11:15:13.126Z,1016.29
2022-09-21T11:16:13.199Z,1016.28
2022-09-21T11:17:13.118Z,1016.29
2022-09-21T11:18:13.140Z,1016.29
2022-09-21T11:19:13.102Z,1016.28
2022-09-21T11:20:13.154Z,1016.31
2022-09-21T11:21:13.087Z,1016.29
2022-09-21T11:22:13.079Z,1016.26
2022-09-21T11:23:13.069Z,1016.27
2022-09-21T11:24:13.047Z,1016.26
2022-09-21T11:25:13.073Z,1016.24
2022-09-21T11:26:13.112Z,1016.22
2022-09-21T11:27:13.055Z,1016.22
2022-09-21T11:28:13.023Z,1016.24
2022-09-21T11:29:13.082Z,1016.25
2022-09-21T11:30:13.098Z,1016.22
2022-09-21T11:31:13.080Z,1016.23
2022-09-21T11:32:13.037Z,1016.22
2022-09-21T11:33:12.965Z,1016.21
2022-09-21T11:34:12.937Z,1016.20
2022-09-21T11:35:12.926Z,1016.22
2022-09-21T11:36:12.932Z,1016.20
2022-09-21T11:37:12.904Z,1016.18
2022-09-21T11:38:12.957Z,1016.17
2022-09-21T11:39:12.890Z,1016.16
2022-09-21T11:40:12.959Z,1016.16
2022-09-21T11:41:12.904Z,1016.15
2022-09-21T11:42:12.862Z,1016.15
2022-09-21T11:43:12.862Z,1016.16
2022-09-21T11:44:17.111Z,1016.12
2022-09-21T11:45:12.848Z,1016.15
2022-09-21T11:46:12.907Z,1016.14
2022-09-21T11:47:12.879Z,1016.14
2022-09-21T11:48:12.812Z,1016.14
2022-09-21T11:49:12.949Z,1016.12
2022-09-21T11:50:29.685Z,1016.09
2022-09-21T11:51:12.836Z,1016.08
2022-09-21T11:52:12.807Z,1016.06
2022-09-21T11:53:12.762Z,1016.06
2022-09-21T11:54:12.911Z,1016.05
2022-09-21T11:55:12.757Z,1016.05
2022-09-21T11:56:12.738Z,1016.04
2022-09-21T11:57:12.747Z,1016.04
2022-09-21T11:58:12.722Z,1016.03
2022-09-21T11:59:12.707Z,1016.01
2022-09-21T12:00:12.717Z,1016.03
2022-09-21T12:01:12.698Z,1016.03
2022-09-21T12:02:12.890Z,1016.03
2022-09-21T12:03:12.761Z,1016.03
2022-09-21T12:04:12.645Z,1016.03
2022-09-21T12:05:12.651Z,1016.03
2022-09-21T12:06:12.657Z,1016.00
2022-09-21T12:07:12.634Z,1016.01